Погода Новоивановкана неделю

Ростовская область, Россия

20 - 26 мая
  • 20мая
    Сегодня
    +11°
    +24°
    Облачно с прояснениями
    ВремяПогодаТемператураВлажностьДавлениеВетер, м/сВероятность осадков
    00:00Ясно и безоблачно+11°C73 %750 мм1.4 м/с2 %
    03:00Ясно и безоблачно+8°C82 %750 мм0.9 м/с2 %
    06:00Ясно и безоблачно+10°C77 %751 мм1.0 м/с2 %
    09:00Ясно и безоблачно+19°C52 %752 мм1.9 м/с2 %
    12:00Облачно с прояснениями+23°C34 %751 мм2.8 м/с2 %
    15:00Облачно с прояснениями+24°C31 %751 мм1.9 м/с3 %
    18:00Небольшая облачность+22°C31 %751 мм1.9 м/с2 %
    21:00Ясно и безоблачно+16°C48 %752 мм1.2 м/с2 %
  • 21мая
    Вторник
    +12°
    +26°
    Небольшая облачность
    ВремяПогодаТемператураВлажностьДавлениеВетер, м/сВероятность осадков
    00:00Небольшая облачность+13°C60 %752 мм1.2 м/с2 %
    03:00Ясно и безоблачно+12°C58 %752 мм0.5 м/с2 %
    06:00Ясно и безоблачно+14°C61 %753 мм0.3 м/с2 %
    09:00Ясно и безоблачно+22°C32 %754 мм0.9 м/с2 %
    12:00Пасмурно, сплошная облачность+25°C25 %754 мм1.7 м/с2 %
    15:00Небольшая облачность+26°C25 %753 мм2.1 м/с2 %
    18:00Небольшая облачность+24°C27 %752 мм2.2 м/с2 %
    21:00Небольшая облачность+18°C46 %752 мм1.8 м/с2 %
  • 22мая
    Среда
    +11°
    +28°
    Небольшая облачность
    ВремяПогодаТемператураВлажностьДавлениеВетер, м/сВероятность осадков
    00:00Небольшая облачность+16°C50 %752 мм1.7 м/с2 %
    03:00Ясно и безоблачно+13°C56 %752 мм1.1 м/с2 %
    06:00Практически безоблачно+15°C54 %752 мм1.1 м/с2 %
    09:00Практически безоблачно+23°C33 %753 мм1.4 м/с2 %
    12:00Облачно с прояснениями+27°C24 %753 мм2.4 м/с2 %
    15:00Небольшая облачность+27°C24 %752 мм2.2 м/с2 %
    18:00Небольшая облачность+26°C23 %751 мм1.9 м/с2 %
    21:00Ясно и безоблачно+19°C39 %751 мм2.4 м/с2 %
  • 23мая
    Четверг
    +11°
    +28°
    Ясно и безоблачно
    ВремяПогодаТемператураВлажностьДавлениеВетер, м/сВероятность осадков
    00:00Ясно и безоблачно+16°C46 %751 мм1.9 м/с2 %
    03:00Ясно и безоблачно+15°C38 %750 мм0.7 м/с2 %
    06:00Ясно и безоблачно+14°C50 %751 мм1.6 м/с2 %
    09:00Ясно и безоблачно+23°C36 %751 мм2.8 м/с2 %
    12:00Ясно и безоблачно+28°C23 %751 мм3.3 м/с9 %
    15:00Ясно и безоблачно+28°C24 %751 мм4.0 м/с29 %
    18:00Практически безоблачно+23°C37 %751 мм4.6 м/с34 %
    21:00Ясно и безоблачно+18°C55 %752 мм3.8 м/с2 %
  • 24мая
    Пятница
    +8°
    +22°
    Ясно и безоблачно
    ВремяПогодаТемператураВлажностьДавлениеВетер, м/сВероятность осадков
    00:00Ясно и безоблачно+15°C70 %753 мм3.3 м/с2 %
    03:00Ясно и безоблачно+12°C74 %754 мм3.7 м/с2 %
    06:00Ясно и безоблачно+12°C47 %755 мм4.0 м/с2 %
    09:00Ясно и безоблачно+17°C36 %756 мм5.6 м/с2 %
    12:00Ясно и безоблачно+20°C32 %757 мм5.6 м/с3 %
    15:00Ясно и безоблачно+22°C23 %756 мм6.1 м/с8 %
    18:00Ясно и безоблачно+20°C20 %756 мм5.7 м/с6 %
    21:00Ясно и безоблачно+15°C25 %757 мм4.2 м/с2 %
Мы используем cookies
Соглашаюсь